createdAt,value
2019-03-09T00:00:55.631Z,97517.20
2019-03-09T00:02:03.220Z,97517.20
2019-03-09T00:03:07.810Z,97522.61
2019-03-09T00:04:10.828Z,97529.30
2019-03-09T00:05:13.855Z,97534.64
2019-03-09T00:06:16.603Z,97524.84
2019-03-09T00:07:26.068Z,97552.07
2019-03-09T00:08:28.719Z,97513.14
2019-03-09T00:09:31.679Z,97517.52
2019-03-09T00:10:39.893Z,97546.48
2019-03-09T00:11:42.895Z,97546.48
2019-03-09T00:12:45.561Z,97513.95
2019-03-09T00:13:48.490Z,97522.86
2019-03-09T00:14:51.157Z,97522.86
2019-03-09T00:15:53.958Z,97514.56
2019-03-09T00:16:56.689Z,97512.36
2019-03-09T00:17:59.291Z,97517.59
2019-03-09T00:19:06.004Z,97514.96
2019-03-09T00:20:09.026Z,97514.96
2019-03-09T00:21:12.090Z,97532.72
2019-03-09T00:22:15.169Z,97500.75
2019-03-09T00:23:36.643Z,97522.14
2019-03-09T00:25:10.528Z,97479.41
2019-03-09T00:26:24.530Z,97460.89
2019-03-09T00:27:46.449Z,97463.84
2019-03-09T00:28:54.577Z,97483.95
2019-03-09T00:30:12.040Z,97511.18
2019-03-09T00:31:39.623Z,97488.97
2019-03-09T00:32:42.616Z,97460.11
2019-03-09T00:33:45.640Z,97468.47
2019-03-09T00:34:55.289Z,97465.20
2019-03-09T00:35:59.498Z,97473.22
2019-03-09T00:37:02.165Z,97463.20
2019-03-09T00:38:04.775Z,97467.50
2019-03-09T00:39:07.688Z,97459.14
2019-03-09T00:40:10.314Z,97467.33
2019-03-09T00:41:13.220Z,97441.56
2019-03-09T00:42:19.307Z,97484.30
2019-03-09T00:43:23.300Z,97466.40
2019-03-09T00:44:25.971Z,97461.48
2019-03-09T00:45:28.592Z,97461.48
2019-03-09T00:46:32.655Z,97439.44
2019-03-09T00:47:35.290Z,97439.44
2019-03-09T00:48:38.010Z,97452.41
2019-03-09T00:49:40.678Z,97438.71
2019-03-09T00:50:50.676Z,97446.29
2019-03-09T00:51:53.493Z,97429.90
2019-03-09T00:52:56.157Z,97444.21
2019-03-09T00:53:58.836Z,97428.95
2019-03-09T00:55:02.213Z,97443.83
2019-03-09T00:56:05.224Z,97443.83
2019-03-09T00:57:08.198Z,97419.23
2019-03-09T00:58:10.813Z,97406.00
2019-03-09T00:59:14.472Z,97406.00
2019-03-09T01:00:17.220Z,97428.70
2019-03-09T01:01:19.826Z,97398.78
2019-03-09T01:02:22.438Z,97421.70
2019-03-09T01:03:25.421Z,97376.73
2019-03-09T01:04:28.503Z,97397.11
2019-03-09T01:05:31.145Z,97404.89
2019-03-09T01:06:33.817Z,97404.89
2019-03-09T01:07:36.475Z,97401.08
2019-03-09T01:08:39.183Z,97390.02
2019-03-09T01:09:42.171Z,97390.02
2019-03-09T01:10:48.223Z,97390.91
2019-03-09T01:11:50.916Z,97390.91
2019-03-09T01:12:53.599Z,97381.73
2019-03-09T01:13:57.917Z,97381.73
2019-03-09T01:15:00.636Z,97409.69
2019-03-09T01:16:06.727Z,97416.20
2019-03-09T01:17:09.372Z,97391.94
2019-03-09T01:18:12.016Z,97384.06
2019-03-09T01:19:14.643Z,97379.03
2019-03-09T01:20:23.078Z,97379.03
2019-03-09T01:21:25.825Z,97383.00
2019-03-09T01:22:28.808Z,97359.30
2019-03-09T01:23:31.533Z,97366.48
2019-03-09T01:24:37.068Z,97404.36
2019-03-09T01:25:39.746Z,97358.03
2019-03-09T01:26:42.395Z,97354.05
2019-03-09T01:27:47.881Z,97359.79
2019-03-09T01:28:51.268Z,97357.30
2019-03-09T01:29:53.907Z,97347.13
2019-03-09T01:30:56.581Z,97353.19
2019-03-09T01:31:59.222Z,97398.78
2019-03-09T01:33:01.868Z,97344.34
2019-03-09T01:34:04.618Z,97336.06
2019-03-09T01:35:07.565Z,97349.42
2019-03-09T01:36:10.256Z,97342.37
2019-03-09T01:37:13.329Z,97342.37
2019-03-09T01:38:15.963Z,97341.64
2019-03-09T01:39:18.628Z,97318.16
2019-03-09T01:40:21.281Z,97345.86
2019-03-09T01:41:24.297Z,97318.81
2019-03-09T01:42:27.291Z,97318.81
2019-03-09T01:43:29.927Z,97277.47
2019-03-09T01:44:33.058Z,97351.34
2019-03-09T01:45:36.603Z,97322.41
2019-03-09T01:46:40.385Z,97322.41
2019-03-09T01:47:43.707Z,97323.36
2019-03-09T01:48:47.414Z,97340.30
2019-03-09T01:49:50.098Z,97308.57
2019-03-09T01:50:52.860Z,97324.80
2019-03-09T01:51:55.630Z,97292.67
2019-03-09T01:52:58.584Z,97336.02
2019-03-09T01:54:01.245Z,97324.55
2019-03-09T01:55:06.557Z,97324.55
2019-03-09T01:56:09.259Z,97329.16
2019-03-09T01:57:12.420Z,97301.00
2019-03-09T01:58:18.079Z,97303.05
2019-03-09T01:59:24.197Z,97328.01
2019-03-09T02:00:27.203Z,97328.01
2019-03-09T02:01:29.826Z,97300.98
2019-03-09T02:02:32.515Z,97315.58
2019-03-09T02:03:35.152Z,97312.20
2019-03-09T02:04:37.876Z,97308.02
2019-03-09T02:05:40.878Z,97290.37
2019-03-09T02:06:43.508Z,97261.16
2019-03-09T02:07:46.154Z,97261.16
2019-03-09T02:08:53.973Z,97297.29
2019-03-09T02:09:56.689Z,97282.61
2019-03-09T02:11:02.704Z,97282.61
2019-03-09T02:12:05.664Z,97299.94
2019-03-09T02:13:11.366Z,97289.53
2019-03-09T02:14:16.441Z,97308.70
2019-03-09T02:15:19.590Z,97267.78
2019-03-09T02:16:22.287Z,97287.36
2019-03-09T02:17:27.880Z,97292.22
2019-03-09T02:18:30.895Z,97290.66
2019-03-09T02:19:33.503Z,97311.30
2019-03-09T02:20:36.211Z,97322.31
2019-03-09T02:21:38.818Z,97319.25
2019-03-09T02:22:41.478Z,97294.39
2019-03-09T02:23:44.114Z,97245.30
2019-03-09T02:24:47.499Z,97261.50
2019-03-09T02:25:50.284Z,97259.90
2019-03-09T02:26:53.598Z,97259.90
2019-03-09T02:27:57.025Z,97279.97
2019-03-09T02:29:01.059Z,97279.97
2019-03-09T02:30:05.631Z,97279.97
2019-03-09T02:31:08.649Z,97279.97
2019-03-09T02:32:11.677Z,97275.00
2019-03-09T02:33:14.712Z,97275.42
2019-03-09T02:34:17.413Z,97276.31
2019-03-09T02:35:20.291Z,97276.31
2019-03-09T02:36:23.463Z,97273.44
2019-03-09T02:37:26.918Z,97254.05
2019-03-09T02:38:49.921Z,97268.89
2019-03-09T02:40:14.485Z,97262.92
2019-03-09T02:41:17.208Z,97258.31
2019-03-09T02:42:20.209Z,97259.16
2019-03-09T02:43:22.945Z,97256.45
2019-03-09T02:44:26.126Z,97256.45
2019-03-09T02:45:30.541Z,97259.23
2019-03-09T02:46:33.181Z,97246.31
2019-03-09T02:47:35.987Z,97246.31
2019-03-09T02:48:38.682Z,97273.47
2019-03-09T02:49:41.341Z,97253.66
2019-03-09T02:50:59.294Z,97254.86
2019-03-09T02:52:01.937Z,97241.20
2019-03-09T02:53:05.201Z,97250.22
2019-03-09T02:54:07.952Z,97254.76
2019-03-09T02:55:10.997Z,97244.57
2019-03-09T02:56:13.651Z,97274.81
2019-03-09T02:57:16.570Z,97256.39
2019-03-09T02:58:19.203Z,97249.90
2019-03-09T02:59:22.331Z,97267.08
2019-03-09T03:00:26.896Z,97244.14
2019-03-09T03:01:51.206Z,97238.25
2019-03-09T03:02:57.410Z,97247.48
2019-03-09T03:04:00.342Z,97246.38
2019-03-09T03:05:03.411Z,97246.02
2019-03-09T03:06:06.131Z,97233.87
2019-03-09T03:07:09.213Z,97228.73
2019-03-09T03:08:11.841Z,97229.13
2019-03-09T03:09:15.482Z,97215.56
2019-03-09T03:10:18.404Z,97212.93
2019-03-09T03:11:21.091Z,97226.96
2019-03-09T03:12:23.754Z,97224.27
2019-03-09T03:13:26.396Z,97237.47
2019-03-09T03:14:30.084Z,97217.62
2019-03-09T03:15:32.805Z,97217.62
2019-03-09T03:16:36.792Z,97219.61
2019-03-09T03:17:39.415Z,97234.70
2019-03-09T03:18:42.191Z,97214.75
2019-03-09T03:19:44.934Z,97214.75
2019-03-09T03:20:47.941Z,97224.37
2019-03-09T03:21:50.620Z,97224.37
2019-03-09T03:22:53.588Z,97228.09
2019-03-09T03:23:56.303Z,97222.62
2019-03-09T03:24:59.058Z,97214.14
2019-03-09T03:26:01.687Z,97234.70
2019-03-09T03:27:04.422Z,97222.94
2019-03-09T03:28:07.021Z,97220.09
2019-03-09T03:29:09.938Z,97223.97
2019-03-09T03:30:13.077Z,97216.20
2019-03-09T03:31:16.160Z,97222.09
2019-03-09T03:32:18.838Z,97213.10
2019-03-09T03:33:21.473Z,97207.56
2019-03-09T03:34:24.222Z,97213.42
2019-03-09T03:35:27.218Z,97213.98
2019-03-09T03:36:29.867Z,97220.66
2019-03-09T03:37:32.637Z,97221.84
2019-03-09T03:38:35.267Z,97222.09
2019-03-09T03:39:37.907Z,97219.70
2019-03-09T03:40:40.548Z,97219.14
2019-03-09T03:41:43.449Z,97215.73
2019-03-09T03:42:46.184Z,97215.73
2019-03-09T03:43:49.403Z,97215.66
2019-03-09T03:44:52.086Z,97215.66
2019-03-09T03:45:58.013Z,97210.72
2019-03-09T03:47:02.620Z,97210.72
2019-03-09T03:48:08.992Z,97209.80
2019-03-09T03:49:14.013Z,97209.80
2019-03-09T03:50:16.804Z,97212.17
2019-03-09T03:51:19.666Z,97215.88
2019-03-09T03:52:22.437Z,97215.88
2019-03-09T03:53:25.176Z,97208.52
2019-03-09T03:54:28.118Z,97203.66
2019-03-09T03:55:30.739Z,97204.08
2019-03-09T03:56:33.464Z,97211.22
2019-03-09T03:57:36.102Z,97212.64
2019-03-09T03:58:38.752Z,97202.09
2019-03-09T03:59:42.315Z,97205.25
2019-03-09T04:00:45.230Z,97210.48
2019-03-09T04:01:48.351Z,97210.02
2019-03-09T04:02:50.997Z,97207.78
2019-03-09T04:03:53.665Z,97201.03
2019-03-09T04:04:57.276Z,97201.03
2019-03-09T04:06:03.017Z,97213.67
2019-03-09T04:07:07.440Z,97223.19
2019-03-09T04:08:10.100Z,97216.72
2019-03-09T04:09:12.762Z,97216.72
2019-03-09T04:10:15.450Z,97224.89
2019-03-09T04:11:18.184Z,97214.88
2019-03-09T04:12:21.244Z,97217.97
2019-03-09T04:13:24.155Z,97198.26
2019-03-09T04:14:26.799Z,97198.43
2019-03-09T04:15:29.451Z,97214.62
2019-03-09T04:16:32.095Z,97207.95
2019-03-09T04:17:34.798Z,97207.95
2019-03-09T04:18:37.483Z,97232.27
2019-03-09T04:19:40.414Z,97206.09
2019-03-09T04:20:43.073Z,97217.34
2019-03-09T04:21:45.697Z,97218.94
2019-03-09T04:22:48.434Z,97225.52
2019-03-09T04:23:51.152Z,97225.52
2019-03-09T04:24:54.209Z,97246.66
2019-03-09T04:25:57.139Z,97223.70
2019-03-09T04:26:59.927Z,97228.86
2019-03-09T04:28:02.875Z,97222.11
2019-03-09T04:29:06.740Z,97222.11
2019-03-09T04:30:09.464Z,97227.76
2019-03-09T04:31:12.168Z,97224.00
2019-03-09T04:32:15.078Z,97238.23
2019-03-09T04:33:18.218Z,97238.23
2019-03-09T04:34:20.940Z,97214.97
2019-03-09T04:35:23.587Z,97214.97
2019-03-09T04:36:26.246Z,97214.80
2019-03-09T04:37:28.907Z,97260.94
2019-03-09T04:38:31.976Z,97260.94
2019-03-09T04:39:34.854Z,97227.83
2019-03-09T04:40:37.584Z,97233.38
2019-03-09T04:41:41.077Z,97234.80
2019-03-09T04:42:43.747Z,97234.58
2019-03-09T04:43:46.386Z,97218.31
2019-03-09T04:44:49.810Z,97218.31
2019-03-09T04:45:52.444Z,97217.42
2019-03-09T04:46:55.117Z,97217.42
2019-03-09T04:47:57.779Z,97251.48
2019-03-09T04:49:04.913Z,97247.68
2019-03-09T04:50:07.604Z,97222.75
2019-03-09T04:51:10.549Z,97222.75
2019-03-09T04:52:13.271Z,97237.06
2019-03-09T04:53:16.321Z,97234.11
2019-03-09T04:54:19.034Z,97234.11
2019-03-09T04:55:21.692Z,97243.48
2019-03-09T04:56:24.710Z,97239.19
2019-03-09T04:57:27.955Z,97244.84
2019-03-09T04:58:31.003Z,97238.88
2019-03-09T04:59:33.766Z,97238.88
2019-03-09T05:00:36.468Z,97234.04
2019-03-09T05:01:39.114Z,97232.44
2019-03-09T05:02:41.921Z,97232.44
2019-03-09T05:03:44.960Z,97222.14
2019-03-09T05:04:48.115Z,97222.14
2019-03-09T05:05:50.956Z,97228.56
2019-03-09T05:06:53.789Z,97231.51
2019-03-09T05:07:56.523Z,97243.41
2019-03-09T05:08:59.197Z,97229.20
2019-03-09T05:10:02.693Z,97241.27
2019-03-09T05:11:05.496Z,97245.64
2019-03-09T05:12:08.145Z,97245.64
2019-03-09T05:13:10.821Z,97237.00
2019-03-09T05:14:13.649Z,97245.56
2019-03-09T05:15:16.522Z,97255.02
2019-03-09T05:16:20.770Z,97221.66
2019-03-09T05:17:23.497Z,97248.02
2019-03-09T05:18:26.227Z,97237.96
2019-03-09T05:19:28.868Z,97251.63
2019-03-09T05:20:31.624Z,97243.04
2019-03-09T05:21:34.380Z,97243.04
2019-03-09T05:22:40.024Z,97252.48
2019-03-09T05:23:42.655Z,97233.34
2019-03-09T05:24:45.291Z,97233.34
2019-03-09T05:25:47.942Z,97246.59
2019-03-09T05:26:51.070Z,97241.94
2019-03-09T05:27:53.841Z,97243.99
2019-03-09T05:28:56.776Z,97234.78
2019-03-09T05:29:59.666Z,97252.66
2019-03-09T05:31:02.333Z,97233.44
2019-03-09T05:32:05.060Z,97233.44
2019-03-09T05:33:08.828Z,97231.23
2019-03-09T05:34:11.575Z,97254.72
2019-03-09T05:35:15.046Z,97254.72
2019-03-09T05:36:17.741Z,97235.45
2019-03-09T05:37:20.381Z,97245.44
2019-03-09T05:38:23.037Z,97233.69
2019-03-09T05:39:25.963Z,97232.34
2019-03-09T05:40:28.591Z,97251.67
2019-03-09T05:41:31.315Z,97259.28
2019-03-09T05:42:34.237Z,97265.78
2019-03-09T05:43:37.237Z,97255.47
2019-03-09T05:44:39.880Z,97254.83
2019-03-09T05:45:42.837Z,97266.83
2019-03-09T05:46:45.558Z,97262.32
2019-03-09T05:47:48.556Z,97287.17
2019-03-09T05:48:51.283Z,97258.34
2019-03-09T05:49:54.300Z,97258.34
2019-03-09T05:50:56.937Z,97265.80
2019-03-09T05:52:01.905Z,97263.34
2019-03-09T05:53:04.532Z,97267.08
2019-03-09T05:54:07.230Z,97274.11
2019-03-09T05:55:12.940Z,97258.69
2019-03-09T05:56:15.930Z,97248.13
2019-03-09T05:57:18.592Z,97278.16
2019-03-09T05:58:21.846Z,97262.98
2019-03-09T05:59:24.605Z,97267.77
2019-03-09T06:00:27.583Z,97254.64
2019-03-09T06:01:30.288Z,97259.50
2019-03-09T06:02:32.970Z,97260.05
2019-03-09T06:03:35.660Z,97260.05
2019-03-09T06:04:38.940Z,97278.42
2019-03-09T06:05:41.663Z,97281.66
2019-03-09T06:06:48.099Z,97281.66
2019-03-09T06:07:50.953Z,97277.86
2019-03-09T06:08:54.572Z,97275.87
2019-03-09T06:09:57.346Z,97305.30
2019-03-09T06:11:00.289Z,97305.30
2019-03-09T06:12:03.347Z,97283.52
2019-03-09T06:13:06.374Z,97292.58
2019-03-09T06:14:11.870Z,97270.55
2019-03-09T06:15:14.527Z,97276.37
2019-03-09T06:16:17.225Z,97297.91
2019-03-09T06:17:20.187Z,97292.67
2019-03-09T06:18:22.827Z,97293.45
2019-03-09T06:19:25.487Z,97300.63
2019-03-09T06:20:28.184Z,97289.48
2019-03-09T06:21:30.829Z,97308.57
2019-03-09T06:22:33.471Z,97322.01
2019-03-09T06:23:36.400Z,97294.23
2019-03-09T06:24:39.172Z,97317.06
2019-03-09T06:25:41.934Z,97317.06
2019-03-09T06:26:44.566Z,97317.22
2019-03-09T06:27:47.239Z,97318.20
2019-03-09T06:28:49.962Z,97322.80
2019-03-09T06:29:53.195Z,97320.33
2019-03-09T06:43:42.795Z,97330.28
2019-03-09T06:44:45.646Z,97344.51
2019-03-09T06:45:54.339Z,97331.22
2019-03-09T06:46:57.009Z,97339.50
2019-03-09T06:47:59.728Z,97324.91
2019-03-09T06:49:02.772Z,97329.55
2019-03-09T06:50:05.414Z,97329.55
2019-03-09T06:51:08.097Z,97332.49
2019-03-09T06:52:10.716Z,97319.28
2019-03-09T06:53:13.530Z,97326.50
2019-03-09T06:54:16.183Z,97334.37
2019-03-09T06:55:20.685Z,97345.12
2019-03-09T06:56:23.338Z,97351.42
2019-03-09T06:57:25.987Z,97366.06
2019-03-09T06:58:28.883Z,97360.98
2019-03-09T06:59:31.538Z,97358.11
2019-03-09T07:00:34.211Z,97358.11
2019-03-09T07:01:37.342Z,97369.56
2019-03-09T07:02:40.288Z,97378.08
2019-03-09T07:03:43.061Z,97372.18
2019-03-09T07:04:45.709Z,97364.47
2019-03-09T07:05:51.463Z,97364.47
2019-03-09T07:06:54.120Z,97372.17
2019-03-09T07:07:57.127Z,97370.28
2019-03-09T07:08:59.765Z,97370.52
2019-03-09T07:10:02.404Z,97368.03
2019-03-09T07:11:05.462Z,97386.68
2019-03-09T07:12:08.318Z,97392.88
2019-03-09T07:13:11.176Z,97392.09
2019-03-09T07:14:15.338Z,97405.92
2019-03-09T07:15:17.976Z,97397.02
2019-03-09T07:16:20.716Z,97387.05
2019-03-09T07:17:23.383Z,97407.84
2019-03-09T07:18:26.113Z,97391.84
2019-03-09T07:19:29.933Z,97416.66
2019-03-09T07:20:37.031Z,97416.66
2019-03-09T07:21:37.271Z,97406.80
2019-03-09T07:22:40.492Z,97415.14
2019-03-09T07:23:43.351Z,97415.14
2019-03-09T07:24:46.459Z,97401.77
2019-03-09T07:25:49.489Z,97409.56
2019-03-09T07:26:52.505Z,97409.80
2019-03-09T07:27:55.189Z,97409.80
2019-03-09T07:28:57.886Z,97409.95
2019-03-09T07:30:00.681Z,97426.94
2019-03-09T07:31:03.705Z,97426.94
2019-03-09T07:32:10.018Z,97421.73
2019-03-09T07:33:12.746Z,97436.33
2019-03-09T07:34:20.326Z,97436.33
2019-03-09T07:35:24.458Z,97425.87
2019-03-09T07:36:27.224Z,97425.87
2019-03-09T07:37:31.367Z,97429.22
2019-03-09T07:38:33.992Z,97440.05
2019-03-09T07:39:38.124Z,97457.90
2019-03-09T07:40:40.893Z,97450.55
2019-03-09T07:41:43.594Z,97446.09
2019-03-09T07:42:48.714Z,97473.17
2019-03-09T07:43:51.906Z,97473.17
2019-03-09T07:44:54.574Z,97466.88
2019-03-09T07:45:57.593Z,97460.56
2019-03-09T07:47:01.308Z,97467.83
2019-03-09T07:48:05.503Z,97470.20
2019-03-09T07:49:08.179Z,97476.13
2019-03-09T07:50:11.109Z,97468.94
2019-03-09T07:51:13.962Z,97468.64
2019-03-09T07:52:17.047Z,97468.64
2019-03-09T07:53:20.270Z,97469.01
2019-03-09T07:54:25.741Z,97471.63
2019-03-09T07:55:28.453Z,97478.65
2019-03-09T07:56:31.235Z,97458.90
2019-03-09T07:57:34.354Z,97463.98
2019-03-09T07:58:41.423Z,97457.38
2019-03-09T07:59:47.043Z,97457.38
2019-03-09T08:00:49.839Z,97454.91
2019-03-09T08:01:56.923Z,97450.51
2019-03-09T08:03:00.596Z,97447.95
2019-03-09T08:04:03.593Z,97455.60
2019-03-09T08:05:07.006Z,97459.09
2019-03-09T08:06:10.165Z,97460.15
2019-03-09T08:07:14.819Z,97464.91
2019-03-09T08:08:21.132Z,97458.62
2019-03-09T08:09:28.777Z,97469.28
2019-03-09T08:10:34.858Z,97469.28
2019-03-09T08:11:39.945Z,97479.13
2019-03-09T08:12:42.740Z,97479.13
2019-03-09T08:13:47.835Z,97465.41
2019-03-09T08:14:52.866Z,97447.66
2019-03-09T08:15:55.727Z,97447.66
2019-03-09T08:17:08.171Z,97470.89
2019-03-09T08:18:10.904Z,97470.89
2019-03-09T08:19:13.975Z,97463.91
2019-03-09T08:20:17.073Z,97469.77
2019-03-09T08:21:21.594Z,97461.55
2019-03-09T08:22:26.860Z,97461.55
2019-03-09T08:23:30.418Z,97448.42
2019-03-09T08:24:33.658Z,97458.06
2019-03-09T08:25:36.475Z,97456.64
2019-03-09T08:26:39.131Z,97488.52
2019-03-09T08:27:43.583Z,97488.52
2019-03-09T08:28:48.576Z,97467.55
2019-03-09T08:29:54.471Z,97475.11
2019-03-09T08:30:57.338Z,97474.33
2019-03-09T08:32:05.041Z,97489.78
2019-03-09T08:33:05.138Z,97478.39
2019-03-09T08:34:08.361Z,97472.64
2019-03-09T08:35:11.607Z,97496.08
2019-03-09T08:36:14.784Z,97487.06
2019-03-09T08:37:17.633Z,97486.95
2019-03-09T08:38:20.304Z,97485.17
2019-03-09T08:39:23.160Z,97485.17
2019-03-09T08:40:26.343Z,97474.35
2019-03-09T08:41:29.211Z,97496.10
2019-03-09T08:42:34.672Z,97495.29
2019-03-09T08:43:37.550Z,97485.71
2019-03-09T08:44:41.868Z,97516.71
2019-03-09T08:45:44.668Z,97500.33
2019-03-09T08:46:47.568Z,97508.58
2019-03-09T08:47:53.093Z,97492.31
2019-03-09T08:48:55.753Z,97491.92
2019-03-09T08:49:58.660Z,97481.95
2019-03-09T08:51:01.763Z,97500.30
2019-03-09T08:52:06.426Z,97487.94
2019-03-09T08:53:09.703Z,97497.10
2019-03-09T08:54:12.524Z,97497.10
2019-03-09T08:55:17.714Z,97497.59
2019-03-09T08:56:19.855Z,97470.92
2019-03-09T08:57:26.350Z,97470.92
2019-03-09T08:58:29.202Z,97490.84
2019-03-09T08:59:32.358Z,97495.54
2019-03-09T09:00:35.075Z,97484.20
2019-03-09T09:01:39.385Z,97484.20
2019-03-09T09:02:42.203Z,97504.70
2019-03-09T09:03:44.916Z,97504.70
2019-03-09T09:04:47.613Z,97524.37
2019-03-09T09:05:50.311Z,97502.67
2019-03-09T09:06:52.990Z,97503.34
2019-03-09T09:07:55.831Z,97479.71
2019-03-09T09:08:58.515Z,97506.84
2019-03-09T09:10:09.069Z,97505.48
2019-03-09T09:11:12.244Z,97514.58
2019-03-09T09:12:15.458Z,97501.26
2019-03-09T09:13:18.144Z,97501.26
2019-03-09T09:14:20.786Z,97487.27
2019-03-09T09:15:23.815Z,97487.27
2019-03-09T09:16:28.473Z,97510.09
2019-03-09T09:17:33.887Z,97509.72
2019-03-09T09:18:36.654Z,97542.70
2019-03-09T09:19:42.198Z,97510.38
2019-03-09T09:20:48.800Z,97502.08
2019-03-09T09:21:51.478Z,56510.71
2019-03-09T09:22:54.141Z,56587.30
2019-03-09T09:23:57.136Z,56259.16
2019-03-09T09:25:01.625Z,56259.16
2019-03-09T09:26:10.099Z,97499.61
2019-03-09T09:27:11.713Z,97498.97
2019-03-09T09:28:15.546Z,97492.28
2019-03-09T09:29:19.139Z,97492.28
2019-03-09T09:30:22.086Z,97509.13
2019-03-09T09:31:24.722Z,97509.13
2019-03-09T09:32:28.601Z,97508.70
2019-03-09T09:33:37.960Z,97512.77
2019-03-09T09:34:41.169Z,97496.73
2019-03-09T09:35:46.374Z,97500.22
2019-03-09T09:36:49.347Z,97479.54
2019-03-09T09:37:52.008Z,97484.23
2019-03-09T09:38:56.961Z,97492.38
2019-03-09T09:39:59.656Z,97510.94
2019-03-09T09:41:02.358Z,97503.73
2019-03-09T09:42:09.151Z,97498.78
2019-03-09T09:43:12.117Z,97505.90
2019-03-09T09:44:15.040Z,97505.90
2019-03-09T09:45:17.696Z,97492.23
2019-03-09T09:46:20.491Z,97495.88
2019-03-09T09:47:23.147Z,97507.50
2019-03-09T09:48:29.320Z,97509.02
2019-03-09T09:49:36.330Z,97509.02
2019-03-09T09:50:38.972Z,97506.92
2019-03-09T09:51:41.668Z,97527.83
2019-03-09T09:52:49.749Z,97526.42
2019-03-09T09:53:53.867Z,97522.20
2019-03-09T09:54:59.066Z,97523.41
2019-03-09T09:56:02.042Z,97518.04
2019-03-09T09:57:05.530Z,97516.82
2019-03-09T09:58:08.182Z,97526.02
2019-03-09T09:59:14.597Z,97514.48
2019-03-09T10:00:17.286Z,97539.13
2019-03-09T10:01:20.327Z,97512.94
2019-03-09T10:02:23.297Z,97503.11
2019-03-09T10:03:26.756Z,97503.11
2019-03-09T10:04:32.517Z,97516.68
2019-03-09T10:05:35.242Z,97516.68
2019-03-09T10:06:40.468Z,97515.02
2019-03-09T10:07:43.105Z,97499.65
2019-03-09T10:08:46.082Z,97506.11
2019-03-09T10:09:51.713Z,97512.94
2019-03-09T10:10:54.434Z,97512.94
2019-03-09T10:12:03.138Z,97505.12
2019-03-09T10:13:08.610Z,97511.77
2019-03-09T10:14:14.067Z,97520.98
2019-03-09T10:15:18.506Z,97511.67
2019-03-09T10:16:21.183Z,97509.44
2019-03-09T10:17:26.729Z,97491.92
2019-03-09T10:18:31.655Z,97491.92
2019-03-09T10:19:42.779Z,97509.34
2019-03-09T10:20:46.118Z,97485.24
2019-03-09T10:21:49.500Z,97494.00
2019-03-09T10:23:03.639Z,97498.96
2019-03-09T10:23:57.810Z,97498.96
2019-03-09T10:25:00.547Z,97509.37
2019-03-09T10:26:04.272Z,97501.72
2019-03-09T10:27:10.038Z,97502.73
2019-03-09T10:28:13.104Z,97512.03
2019-03-09T10:29:15.791Z,97516.55
2019-03-09T10:30:18.449Z,97506.61
2019-03-09T10:31:21.241Z,97524.74
2019-03-09T10:32:31.354Z,97501.28
2019-03-09T10:33:34.264Z,97505.83
2019-03-09T10:34:37.798Z,97501.55
2019-03-09T10:35:40.455Z,97500.13
2019-03-09T10:36:43.220Z,97488.14
2019-03-09T10:37:45.851Z,97494.59
2019-03-09T10:38:49.997Z,97485.89
2019-03-09T10:39:52.735Z,97471.66
2019-03-09T10:40:55.486Z,97478.11
2019-03-09T10:41:58.491Z,97492.91
2019-03-09T10:43:01.263Z,97492.91
2019-03-09T10:44:03.919Z,97494.03
2019-03-09T10:45:07.014Z,97503.41
2019-03-09T10:46:10.090Z,97503.25
2019-03-09T10:47:12.781Z,97496.38
2019-03-09T10:48:16.634Z,97496.38
2019-03-09T10:49:22.692Z,97491.88
2019-03-09T10:50:26.078Z,97486.13
2019-03-09T10:51:29.213Z,97482.18
2019-03-09T10:52:33.632Z,97482.18
2019-03-09T10:53:36.275Z,97482.81
2019-03-09T10:54:38.912Z,97485.84
2019-03-09T10:55:42.755Z,97502.97
2019-03-09T10:56:47.090Z,97491.28
2019-03-09T10:57:54.515Z,97494.58
2019-03-09T10:58:57.153Z,97494.58
2019-03-09T11:00:00.267Z,97496.17
2019-03-09T11:01:06.081Z,97503.04
2019-03-09T11:02:10.881Z,97503.04
2019-03-09T11:03:18.904Z,97490.39
2019-03-09T11:04:27.613Z,97502.55
2019-03-09T11:05:30.293Z,97513.97
2019-03-09T11:06:33.071Z,97513.97
2019-03-09T11:07:38.299Z,97477.03
2019-03-09T11:08:41.311Z,97477.03
2019-03-09T11:09:47.848Z,97499.94
2019-03-09T11:10:51.562Z,97511.45
2019-03-09T11:11:54.199Z,97511.45
2019-03-09T11:13:00.486Z,97489.89
2019-03-09T11:14:03.163Z,97489.45
2019-03-09T11:15:05.827Z,97489.45
2019-03-09T11:16:12.908Z,97511.75
2019-03-09T11:17:15.560Z,97511.75
2019-03-09T11:18:18.210Z,97490.10
2019-03-09T11:19:20.897Z,97490.10
2019-03-09T11:20:23.585Z,97505.99
2019-03-09T11:21:26.369Z,97507.41
2019-03-09T11:22:29.677Z,97504.82
2019-03-09T11:23:34.341Z,97507.98
2019-03-09T11:24:36.793Z,97507.98
2019-03-09T11:25:39.852Z,97507.52
2019-03-09T11:26:42.548Z,97520.63
2019-03-09T11:27:45.297Z,97520.63
2019-03-09T11:28:47.924Z,97498.66
2019-03-09T11:29:50.724Z,97498.66
2019-03-09T11:42:51.904Z,97470.05
2019-03-09T11:43:54.647Z,97459.07
2019-03-09T11:44:57.458Z,97463.25
2019-03-09T11:46:00.569Z,97463.25
2019-03-09T11:47:03.297Z,97475.17
2019-03-09T11:48:06.366Z,97475.61
2019-03-09T11:49:09.277Z,97473.14
2019-03-09T11:50:12.037Z,97470.95
2019-03-09T11:51:14.936Z,97455.32
2019-03-09T11:52:29.187Z,97452.39
2019-03-09T11:53:32.491Z,97452.39
2019-03-09T11:54:38.419Z,97491.59
2019-03-09T11:55:41.222Z,97491.59
2019-03-09T11:56:50.721Z,97489.39
2019-03-09T11:57:53.412Z,97486.74
2019-03-09T11:58:56.208Z,97486.74
2019-03-09T11:59:59.230Z,97495.88
2019-03-09T12:01:04.167Z,97479.47
2019-03-09T12:02:12.788Z,97472.77
2019-03-09T12:03:15.504Z,97472.77
2019-03-09T12:04:18.162Z,97489.08
2019-03-09T12:05:20.856Z,97459.75
2019-03-09T12:06:23.796Z,97475.61
2019-03-09T12:07:26.552Z,97456.70
2019-03-09T12:08:29.198Z,97447.77
2019-03-09T12:09:32.811Z,97437.02
2019-03-09T12:10:35.628Z,97447.08
2019-03-09T12:11:41.647Z,97444.02
2019-03-09T12:12:45.194Z,97437.46
2019-03-09T12:13:48.339Z,97449.23
2019-03-09T12:14:51.451Z,97431.66
2019-03-09T12:15:56.276Z,97428.97
2019-03-09T12:16:59.535Z,97423.34
2019-03-09T12:18:02.530Z,97425.62
2019-03-09T12:19:05.771Z,97425.62
2019-03-09T12:20:11.399Z,97416.32
2019-03-09T12:21:14.105Z,97403.40
2019-03-09T12:22:19.012Z,97435.14
2019-03-09T12:23:21.696Z,97411.17
2019-03-09T12:24:28.363Z,97401.21
2019-03-09T12:25:31.341Z,97401.21
2019-03-09T12:26:34.521Z,97404.72
2019-03-09T12:27:40.200Z,97395.55
2019-03-09T12:28:43.528Z,97395.55
2019-03-09T12:29:46.331Z,97405.72
2019-03-09T12:30:49.484Z,97400.86
2019-03-09T12:31:52.684Z,97400.86
2019-03-09T12:32:57.173Z,97388.16
2019-03-09T12:34:00.345Z,97389.76
2019-03-09T12:35:02.994Z,97379.46
2019-03-09T12:36:05.928Z,97379.46
2019-03-09T12:37:11.924Z,97369.28
2019-03-09T12:38:15.573Z,97369.28
2019-03-09T12:39:19.575Z,97346.39
2019-03-09T12:40:22.215Z,97351.78
2019-03-09T12:41:24.887Z,97351.78
2019-03-09T12:42:28.611Z,97340.75
2019-03-09T12:43:31.344Z,97322.48
2019-03-09T12:44:34.259Z,97298.28
2019-03-09T12:45:40.241Z,97314.59
2019-03-09T12:46:46.039Z,97293.30
2019-03-09T12:47:48.680Z,97281.89
2019-03-09T12:48:54.195Z,97302.98
2019-03-09T12:49:56.925Z,97278.13
2019-03-09T12:50:59.715Z,97278.13
2019-03-09T12:52:02.509Z,97263.75
2019-03-09T12:53:05.256Z,97251.95
2019-03-09T12:54:08.309Z,97248.44